Aliquippa, Pennsylvania
Current Conditions -  °F | °C
As of 2:51 AM on Thursday 18 Dec 2014 (Local Time) from KPIT Reporting Station
Light Snow Light Snow  
Wind Chill: 17°   Ceiling: 2000
Heat Index: 28°   Visibility: 9mi
Dew Point: 20°   Wind: 13mph
Humidity: 72%   Direction: 270°W
Pressure: 30.16"   Gusts: NA
Location:  40.62°N, 80.24°W
Report Text: KPIT 180751Z 27011KT 9SM -SN BKN020 OVC027 M02/M07 A3016 RMK AO2 SLP234 P0000 T10221067
Loading
Personal Weather Stations






























Interactive Weather Map New forecast layout! Learn more

10-Day Weather Forecast

Advertisements
Track Severe Weather on mobile